sensor_id;sensor_type;location;lat;lon;timestamp;pressure;altitude;pressure_sealevel;temperature;humidity
28344;BME280;15597;50.914;6.638;2023-05-02T00:00:33;101109.09;;;17.04;53.03
28344;BME280;15597;50.914;6.638;2023-05-02T00:03:00;101108.28;;;17.02;53.04
28344;BME280;15597;50.914;6.638;2023-05-02T00:05:26;101124.25;;;16.99;53.07
28344;BME280;15597;50.914;6.638;2023-05-02T00:07:51;101111.19;;;16.94;53.06
28344;BME280;15597;50.914;6.638;2023-05-02T00:10:17;101117.41;;;16.93;53.40
28344;BME280;15597;50.914;6.638;2023-05-02T00:12:43;101119.25;;;16.91;53.23
28344;BME280;15597;50.914;6.638;2023-05-02T00:15:09;101124.66;;;16.88;52.97
28344;BME280;15597;50.914;6.638;2023-05-02T00:17:35;101129.94;;;16.88;53.16
28344;BME280;15597;50.914;6.638;2023-05-02T00:20:01;101124.78;;;16.85;53.04
28344;BME280;15597;50.914;6.638;2023-05-02T00:22:29;101132.69;;;16.85;53.10
28344;BME280;15597;50.914;6.638;2023-05-02T00:24:56;101130.19;;;16.82;52.99
28344;BME280;15597;50.914;6.638;2023-05-02T00:27:22;101127.53;;;16.82;53.21
28344;BME280;15597;50.914;6.638;2023-05-02T00:29:47;101125.81;;;16.80;53.13
28344;BME280;15597;50.914;6.638;2023-05-02T00:32:13;101123.28;;;16.77;53.20
28344;BME280;15597;50.914;6.638;2023-05-02T00:34:39;101126.97;;;16.73;53.08
28344;BME280;15597;50.914;6.638;2023-05-02T00:37:05;101130.66;;;16.69;53.17
28344;BME280;15597;50.914;6.638;2023-05-02T00:39:33;101130.72;;;16.68;53.15
28344;BME280;15597;50.914;6.638;2023-05-02T00:41:59;101131.56;;;16.68;53.13
28344;BME280;15597;50.914;6.638;2023-05-02T00:44:25;101131.56;;;16.68;53.12
28344;BME280;15597;50.914;6.638;2023-05-02T00:46:51;101143.06;;;16.67;53.03
28344;BME280;15597;50.914;6.638;2023-05-02T00:49:18;101143.06;;;16.67;53.03
28344;BME280;15597;50.914;6.638;2023-05-02T00:51:43;101147.44;;;16.68;52.98
28344;BME280;15597;50.914;6.638;2023-05-02T00:54:09;101148.22;;;16.70;53.03
28344;BME280;15597;50.914;6.638;2023-05-02T00:56:36;101146.38;;;16.72;52.96
28344;BME280;15597;50.914;6.638;2023-05-02T00:59:03;101152.47;;;16.74;53.12
28344;BME280;15597;50.914;6.638;2023-05-02T01:01:43;101151.75;;;16.71;53.04
28344;BME280;15597;50.914;6.638;2023-05-02T01:07:17;101167.75;;;16.66;53.19
28344;BME280;15597;50.914;6.638;2023-05-02T01:10:08;101173.97;;;16.65;53.06
28344;BME280;15597;50.914;6.638;2023-05-02T01:12:44;101181.09;;;16.63;53.12
28344;BME280;15597;50.914;6.638;2023-05-02T01:15:21;101180.34;;;16.59;53.19
28344;BME280;15597;50.914;6.638;2023-05-02T01:17:49;101177.59;;;16.62;53.13
28344;BME280;15597;50.914;6.638;2023-05-02T01:20:18;101182.94;;;16.61;53.11
28344;BME280;15597;50.914;6.638;2023-05-02T01:22:46;101191.66;;;16.63;53.10
28344;BME280;15597;50.914;6.638;2023-05-02T01:27:50;101199.13;;;16.52;53.11
28344;BME280;15597;50.914;6.638;2023-05-02T01:30:20;101190.56;;;16.45;53.29
28344;BME280;15597;50.914;6.638;2023-05-02T01:32:48;101198.69;;;16.39;53.43
28344;BME280;15597;50.914;6.638;2023-05-02T01:35:17;101197.88;;;16.36;53.48
28344;BME280;15597;50.914;6.638;2023-05-02T01:37:46;101196.22;;;16.34;53.52
28344;BME280;15597;50.914;6.638;2023-05-02T01:40:17;101198.06;;;16.32;53.68
28344;BME280;15597;50.914;6.638;2023-05-02T01:42:49;101195.34;;;16.33;53.51
28344;BME280;15597;50.914;6.638;2023-05-02T01:45:15;101206.69;;;16.37;53.40
28344;BME280;15597;50.914;6.638;2023-05-02T01:47:43;101197.88;;;16.36;53.49
28344;BME280;15597;50.914;6.638;2023-05-02T01:50:11;101206.69;;;16.37;53.40
28344;BME280;15597;50.914;6.638;2023-05-02T01:52:41;101203.00;;;16.41;53.44
28344;BME280;15597;50.914;6.638;2023-05-02T01:55:09;101206.50;;;16.42;53.56
28344;BME280;15597;50.914;6.638;2023-05-02T01:57:40;101215.31;;;16.42;53.50
28344;BME280;15597;50.914;6.638;2023-05-02T02:00:06;101222.31;;;16.43;53.29
28344;BME280;15597;50.914;6.638;2023-05-02T02:02:40;101225.97;;;16.39;53.49
28344;BME280;15597;50.914;6.638;2023-05-02T02:05:07;101225.97;;;16.39;53.69
28344;BME280;15597;50.914;6.638;2023-05-02T02:07:34;101230.47;;;16.37;53.58
28344;BME280;15597;50.914;6.638;2023-05-02T02:10:00;101227.81;;;16.37;53.61
28344;BME280;15597;50.914;6.638;2023-05-02T02:12:30;101233.91;;;16.39;53.63
28344;BME280;15597;50.914;6.638;2023-05-02T02:15:08;101230.38;;;16.39;53.72
28344;BME280;15597;50.914;6.638;2023-05-02T02:17:52;101239.34;;;16.34;53.73
28344;BME280;15597;50.914;6.638;2023-05-02T02:20:20;101238.50;;;16.34;53.72
28344;BME280;15597;50.914;6.638;2023-05-02T02:22:46;101231.59;;;16.30;53.84
28344;BME280;15597;50.914;6.638;2023-05-02T02:25:17;101235.38;;;16.23;53.78
28344;BME280;15597;50.914;6.638;2023-05-02T02:27:43;101237.94;;;16.24;53.73
28344;BME280;15597;50.914;6.638;2023-05-02T02:30:09;101242.38;;;16.24;53.72
28344;BME280;15597;50.914;6.638;2023-05-02T02:32:36;101237.09;;;16.24;54.05
28344;BME280;15597;50.914;6.638;2023-05-02T02:35:02;101240.66;;;16.23;53.72
28344;BME280;15597;50.914;6.638;2023-05-02T02:37:40;101242.38;;;16.24;53.80
28344;BME280;15597;50.914;6.638;2023-05-02T02:40:18;101244.19;;;16.21;53.92
28344;BME280;15597;50.914;6.638;2023-05-02T02:45:37;101248.34;;;16.29;53.73
28344;BME280;15597;50.914;6.638;2023-05-02T02:48:16;101252.50;;;16.36;53.91
28344;BME280;15597;50.914;6.638;2023-05-02T02:56:28;101252.28;;;16.42;53.46
28344;BME280;15597;50.914;6.638;2023-05-02T03:01:42;101264.34;;;16.49;53.28
28344;BME280;15597;50.914;6.638;2023-05-02T03:04:12;101258.03;;;16.54;53.30
28344;BME280;15597;50.914;6.638;2023-05-02T03:06:38;101250.13;;;16.54;53.41
28344;BME280;15597;50.914;6.638;2023-05-02T03:09:04;101259.88;;;16.52;53.49
28344;BME280;15597;50.914;6.638;2023-05-02T03:11:30;101266.97;;;16.51;53.40
28344;BME280;15597;50.914;6.638;2023-05-02T03:13:57;101265.97;;;16.54;53.43
28344;BME280;15597;50.914;6.638;2023-05-02T03:16:40;101264.47;;;16.46;53.58
28344;BME280;15597;50.914;6.638;2023-05-02T03:19:09;101269.75;;;16.46;53.57
28344;BME280;15597;50.914;6.638;2023-05-02T03:21:36;101268.94;;;16.44;53.47
28344;BME280;15597;50.914;6.638;2023-05-02T03:24:09;101267.25;;;16.42;53.47
28344;BME280;15597;50.914;6.638;2023-05-02T03:26:36;101271.69;;;16.41;53.40
28344;BME280;15597;50.914;6.638;2023-05-02T03:29:02;101264.69;;;16.40;53.43
28344;BME280;15597;50.914;6.638;2023-05-02T03:31:33;101268.25;;;16.39;53.50
28344;BME280;15597;50.914;6.638;2023-05-02T03:33:58;101276.28;;;16.36;53.65
28344;BME280;15597;50.914;6.638;2023-05-02T03:36:24;101278.22;;;16.31;53.54
28344;BME280;15597;50.914;6.638;2023-05-02T03:38:52;101281.75;;;16.30;53.65
28344;BME280;15597;50.914;6.638;2023-05-02T03:41:18;101282.69;;;16.29;53.74
28344;BME280;15597;50.914;6.638;2023-05-02T03:43:48;101284.44;;;16.28;53.91
28344;BME280;15597;50.914;6.638;2023-05-02T03:46:14;101285.25;;;16.30;53.67
28344;BME280;15597;50.914;6.638;2023-05-02T03:48:42;101284.44;;;16.28;53.75
28344;BME280;15597;50.914;6.638;2023-05-02T03:51:10;101282.69;;;16.29;53.73
28344;BME280;15597;50.914;6.638;2023-05-02T03:53:41;101286.13;;;16.31;53.77
28344;BME280;15597;50.914;6.638;2023-05-02T03:56:07;101282.56;;;16.32;53.82
28344;BME280;15597;50.914;6.638;2023-05-02T03:58:42;101282.56;;;16.32;53.94
28344;BME280;15597;50.914;6.638;2023-05-02T04:01:15;101283.53;;;16.29;54.02
28344;BME280;15597;50.914;6.638;2023-05-02T04:03:43;101291.31;;;16.34;53.91
28344;BME280;15597;50.914;6.638;2023-05-02T04:06:11;101291.19;;;16.37;54.41
28344;BME280;15597;50.914;6.638;2023-05-02T04:08:38;101292.16;;;16.34;54.06
28344;BME280;15597;50.914;6.638;2023-05-02T04:11:04;101298.41;;;16.32;54.05
28344;BME280;15597;50.914;6.638;2023-05-02T04:13:30;101305.53;;;16.30;53.97
28344;BME280;15597;50.914;6.638;2023-05-02T04:15:56;101306.34;;;16.32;54.05
28344;BME280;15597;50.914;6.638;2023-05-02T04:18:26;101316.94;;;16.30;54.06
28344;BME280;15597;50.914;6.638;2023-05-02T04:20:52;101316.00;;;16.33;54.04
28344;BME280;15597;50.914;6.638;2023-05-02T04:23:20;101320.34;;;16.34;54.08
28344;BME280;15597;50.914;6.638;2023-05-02T04:25:54;101315.22;;;16.29;53.92
28344;BME280;15597;50.914;6.638;2023-05-02T04:28:23;101324.81;;;16.32;53.58
28344;BME280;15597;50.914;6.638;2023-05-02T04:30:51;101324.75;;;16.33;53.96
28344;BME280;15597;50.914;6.638;2023-05-02T04:33:19;101317.72;;;16.34;53.93
28344;BME280;15597;50.914;6.638;2023-05-02T04:35:45;101330.00;;;16.35;54.05
28344;BME280;15597;50.914;6.638;2023-05-02T04:38:13;101331.72;;;16.36;53.82
28344;BME280;15597;50.914;6.638;2023-05-02T04:40:40;101335.19;;;16.38;53.91
28344;BME280;15597;50.914;6.638;2023-05-02T04:43:07;101345.75;;;16.38;53.72
28344;BME280;15597;50.914;6.638;2023-05-02T04:45:38;101340.47;;;16.38;53.59
28344;BME280;15597;50.914;6.638;2023-05-02T04:48:08;101343.00;;;16.41;53.57
28344;BME280;15597;50.914;6.638;2023-05-02T04:50:34;101343.84;;;16.42;53.72
28344;BME280;15597;50.914;6.638;2023-05-02T04:52:59;101352.53;;;16.45;53.79
28344;BME280;15597;50.914;6.638;2023-05-02T04:55:26;101356.97;;;16.45;53.71
28344;BME280;15597;50.914;6.638;2023-05-02T04:57:52;101349.09;;;16.43;53.80
28344;BME280;15597;50.914;6.638;2023-05-02T05:00:17;101357.00;;;16.43;53.78
28344;BME280;15597;50.914;6.638;2023-05-02T05:02:43;101357.94;;;16.42;53.70
28344;BME280;15597;50.914;6.638;2023-05-02T05:05:10;101358.78;;;16.43;53.62
28344;BME280;15597;50.914;6.638;2023-05-02T05:07:36;101365.75;;;16.45;53.50
28344;BME280;15597;50.914;6.638;2023-05-02T05:10:01;101371.94;;;16.44;53.61
28344;BME280;15597;50.914;6.638;2023-05-02T05:12:33;101374.63;;;16.43;53.56
28344;BME280;15597;50.914;6.638;2023-05-02T05:14:59;101378.25;;;16.40;53.65
28344;BME280;15597;50.914;6.638;2023-05-02T05:17:26;101379.16;;;16.39;53.83
28344;BME280;15597;50.914;6.638;2023-05-02T05:19:52;101381.00;;;16.37;53.85
28344;BME280;15597;50.914;6.638;2023-05-02T05:22:18;101389.72;;;16.39;53.84
28344;BME280;15597;50.914;6.638;2023-05-02T05:24:51;101387.28;;;16.33;53.88
28344;BME280;15597;50.914;6.638;2023-05-02T05:27:18;101395.13;;;16.36;54.03
28344;BME280;15597;50.914;6.638;2023-05-02T05:29:43;101394.19;;;16.37;53.88
28344;BME280;15597;50.914;6.638;2023-05-02T05:32:09;101400.28;;;16.39;53.35
28344;BME280;15597;50.914;6.638;2023-05-02T05:34:35;101402.03;;;16.40;53.78
28344;BME280;15597;50.914;6.638;2023-05-02T05:37:02;101402.03;;;16.40;53.73
28344;BME280;15597;50.914;6.638;2023-05-02T05:39:28;101400.28;;;16.39;53.88
28344;BME280;15597;50.914;6.638;2023-05-02T05:41:55;101408.31;;;16.36;53.99
28344;BME280;15597;50.914;6.638;2023-05-02T05:44:22;101411.06;;;16.33;53.94
28344;BME280;15597;50.914;6.638;2023-05-02T05:46:50;101416.44;;;16.30;54.01
28344;BME280;15597;50.914;6.638;2023-05-02T05:49:18;101421.72;;;16.30;53.81
28344;BME280;15597;50.914;6.638;2023-05-02T05:51:44;101427.84;;;16.30;53.89
28344;BME280;15597;50.914;6.638;2023-05-02T05:54:12;101436.69;;;16.29;54.11
28344;BME280;15597;50.914;6.638;2023-05-02T05:56:37;101421.81;;;16.27;53.99
28344;BME280;15597;50.914;6.638;2023-05-02T05:59:10;101432.50;;;16.24;53.90
28344;BME280;15597;50.914;6.638;2023-05-02T06:01:36;101439.50;;;16.25;53.97
28344;BME280;15597;50.914;6.638;2023-05-02T06:04:03;101442.94;;;16.27;54.09
28344;BME280;15597;50.914;6.638;2023-05-02T06:06:30;101442.03;;;16.28;54.29
28344;BME280;15597;50.914;6.638;2023-05-02T06:08:59;101446.50;;;16.26;54.06
28344;BME280;15597;50.914;6.638;2023-05-02T06:11:25;101447.34;;;16.26;54.12
28344;BME280;15597;50.914;6.638;2023-05-02T06:13:51;101450.88;;;16.27;54.43
28344;BME280;15597;50.914;6.638;2023-05-02T06:16:17;101456.97;;;16.29;54.27
28344;BME280;15597;50.914;6.638;2023-05-02T06:18:44;101456.97;;;16.29;54.23
28344;BME280;15597;50.914;6.638;2023-05-02T06:21:12;101463.97;;;16.30;54.10
28344;BME280;15597;50.914;6.638;2023-05-02T06:23:38;101470.16;;;16.29;54.32
28344;BME280;15597;50.914;6.638;2023-05-02T06:26:05;101463.97;;;16.30;54.18
28344;BME280;15597;50.914;6.638;2023-05-02T06:28:31;101473.72;;;16.28;54.39
28344;BME280;15597;50.914;6.638;2023-05-02T06:31:00;101478.19;;;16.26;54.09
28344;BME280;15597;50.914;6.638;2023-05-02T06:33:27;101478.09;;;16.29;54.22
28344;BME280;15597;50.914;6.638;2023-05-02T06:35:52;101481.56;;;16.31;54.22
28344;BME280;15597;50.914;6.638;2023-05-02T06:38:18;101483.28;;;16.32;54.31
28344;BME280;15597;50.914;6.638;2023-05-02T06:40:44;101488.56;;;16.32;54.34
28344;BME280;15597;50.914;6.638;2023-05-02T06:43:11;101488.56;;;16.32;54.65
28344;BME280;15597;50.914;6.638;2023-05-02T06:45:36;101495.56;;;16.33;54.65
28344;BME280;15597;50.914;6.638;2023-05-02T06:48:02;101498.16;;;16.34;54.62
28344;BME280;15597;50.914;6.638;2023-05-02T06:50:28;101499.03;;;16.35;54.67
28344;BME280;15597;50.914;6.638;2023-05-02T06:52:54;101504.31;;;16.35;54.57
28344;BME280;15597;50.914;6.638;2023-05-02T06:55:20;101500.75;;;16.36;54.49
28344;BME280;15597;50.914;6.638;2023-05-02T06:57:48;101507.78;;;16.37;54.51
28344;BME280;15597;50.914;6.638;2023-05-02T07:00:15;101513.16;;;16.34;54.88
28344;BME280;15597;50.914;6.638;2023-05-02T07:02:41;101514.06;;;16.33;54.83
28344;BME280;15597;50.914;6.638;2023-05-02T07:05:07;101522.91;;;16.32;54.58
28344;BME280;15597;50.914;6.638;2023-05-02T07:07:33;101522.84;;;16.33;54.58
28344;BME280;15597;50.914;6.638;2023-05-02T07:09:59;101532.47;;;16.34;54.58
28344;BME280;15597;50.914;6.638;2023-05-02T07:12:25;101536.03;;;16.33;54.58
28344;BME280;15597;50.914;6.638;2023-05-02T07:14:51;101534.31;;;16.32;54.63
28344;BME280;15597;50.914;6.638;2023-05-02T07:17:17;101536.09;;;16.32;54.37
28344;BME280;15597;50.914;6.638;2023-05-02T07:19:42;101537.81;;;16.33;54.47
28344;BME280;15597;50.914;6.638;2023-05-02T07:22:08;101543.03;;;16.34;54.56
28344;BME280;15597;50.914;6.638;2023-05-02T07:24:33;101543.13;;;16.33;54.54
28344;BME280;15597;50.914;6.638;2023-05-02T07:26:59;101552.78;;;16.32;54.57
28344;BME280;15597;50.914;6.638;2023-05-02T07:29:25;101554.50;;;16.35;54.58
28344;BME280;15597;50.914;6.638;2023-05-02T07:31:51;101557.22;;;16.32;54.42
28344;BME280;15597;50.914;6.638;2023-05-02T07:34:16;101554.69;;;16.29;54.38
28344;BME280;15597;50.914;6.638;2023-05-02T07:36:42;101565.25;;;16.29;54.06
28344;BME280;15597;50.914;6.638;2023-05-02T07:39:07;101561.72;;;16.28;54.05
28344;BME280;15597;50.914;6.638;2023-05-02T07:41:33;101563.41;;;16.31;53.87
28344;BME280;15597;50.914;6.638;2023-05-02T07:43:58;101565.97;;;16.34;53.83
28344;BME280;15597;50.914;6.638;2023-05-02T07:46:25;101571.16;;;16.37;53.86
28344;BME280;15597;50.914;6.638;2023-05-02T07:48:50;101571.97;;;16.39;53.80
28344;BME280;15597;50.914;6.638;2023-05-02T07:51:18;101573.72;;;16.40;53.84
28344;BME280;15597;50.914;6.638;2023-05-02T07:53:48;101571.88;;;16.42;53.68
28344;BME280;15597;50.914;6.638;2023-05-02T07:56:14;101577.97;;;16.44;53.69
28344;BME280;15597;50.914;6.638;2023-05-02T07:58:40;101577.06;;;16.45;53.53
28344;BME280;15597;50.914;6.638;2023-05-02T08:01:05;101585.00;;;16.45;53.63
28344;BME280;15597;50.914;6.638;2023-05-02T08:03:31;101584.16;;;16.45;53.71
28344;BME280;15597;50.914;6.638;2023-05-02T08:05:56;101586.72;;;16.46;53.64
28344;BME280;15597;50.914;6.638;2023-05-02T08:08:22;101589.28;;;16.49;53.63
28344;BME280;15597;50.914;6.638;2023-05-02T08:10:48;101586.53;;;16.53;53.65
28344;BME280;15597;50.914;6.638;2023-05-02T08:13:16;101588.19;;;16.57;53.53
28344;BME280;15597;50.914;6.638;2023-05-02T08:15:41;101592.50;;;16.59;53.38
28344;BME280;15597;50.914;6.638;2023-05-02T08:18:07;101598.75;;;16.57;53.37
28344;BME280;15597;50.914;6.638;2023-05-02T08:20:32;101603.19;;;16.56;52.92
28344;BME280;15597;50.914;6.638;2023-05-02T08:22:58;101595.34;;;16.53;53.13
28344;BME280;15597;50.914;6.638;2023-05-02T08:25:23;101605.94;;;16.52;53.26
28344;BME280;15597;50.914;6.638;2023-05-02T08:27:49;101611.28;;;16.50;53.26
28344;BME280;15597;50.914;6.638;2023-05-02T08:30:14;101608.66;;;16.50;53.18
28344;BME280;15597;50.914;6.638;2023-05-02T08:32:40;101617.38;;;16.52;53.16
28344;BME280;15597;50.914;6.638;2023-05-02T08:35:06;101616.41;;;16.55;53.14
28344;BME280;15597;50.914;6.638;2023-05-02T08:37:32;101616.41;;;16.55;53.11
28344;BME280;15597;50.914;6.638;2023-05-02T08:39:58;101621.59;;;16.58;53.04
28344;BME280;15597;50.914;6.638;2023-05-02T08:42:24;101623.31;;;16.60;53.06
28344;BME280;15597;50.914;6.638;2023-05-02T08:44:50;101626.78;;;16.62;52.89
28344;BME280;15597;50.914;6.638;2023-05-02T08:47:17;101631.06;;;16.65;52.81
28344;BME280;15597;50.914;6.638;2023-05-02T08:49:44;101630.97;;;16.68;52.72
28344;BME280;15597;50.914;6.638;2023-05-02T08:52:11;101631.91;;;16.67;52.06
28344;BME280;15597;50.914;6.638;2023-05-02T08:54:37;101636.28;;;16.68;51.92
28344;BME280;15597;50.914;6.638;2023-05-02T08:57:04;101641.63;;;16.67;51.96
28344;BME280;15597;50.914;6.638;2023-05-02T08:59:29;101640.75;;;16.66;51.75
28344;BME280;15597;50.914;6.638;2023-05-02T09:02:03;101644.28;;;16.65;51.80
28344;BME280;15597;50.914;6.638;2023-05-02T09:04:31;101648.63;;;16.68;51.94
28344;BME280;15597;50.914;6.638;2023-05-02T09:06:58;101650.38;;;16.69;52.03
28344;BME280;15597;50.914;6.638;2023-05-02T09:09:24;101647.66;;;16.70;52.00
28344;BME280;15597;50.914;6.638;2023-05-02T09:11:51;101650.22;;;16.73;51.96
28344;BME280;15597;50.914;6.638;2023-05-02T09:14:17;101658.03;;;16.76;51.83
28344;BME280;15597;50.914;6.638;2023-05-02T09:16:43;101658.84;;;16.78;51.80
28344;BME280;15597;50.914;6.638;2023-05-02T09:19:10;101661.41;;;16.82;51.64
28344;BME280;15597;50.914;6.638;2023-05-02T09:21:39;101671.16;;;16.79;51.52
28344;BME280;15597;50.914;6.638;2023-05-02T09:24:16;101668.63;;;16.76;51.77
28344;BME280;15597;50.914;6.638;2023-05-02T09:27:02;101679.28;;;16.73;51.86
28344;BME280;15597;50.914;6.638;2023-05-02T09:29:29;101673.88;;;16.78;51.67
28344;BME280;15597;50.914;6.638;2023-05-02T09:32:03;101676.50;;;16.78;51.96
28344;BME280;15597;50.914;6.638;2023-05-02T09:34:29;101681.63;;;16.83;51.76
28344;BME280;15597;50.914;6.638;2023-05-02T09:36:56;101683.28;;;16.87;52.08
28344;BME280;15597;50.914;6.638;2023-05-02T09:39:24;101698.13;;;16.91;51.92
28344;BME280;15597;50.914;6.638;2023-05-02T09:41:50;101690.94;;;16.96;51.56
28344;BME280;15597;50.914;6.638;2023-05-02T09:44:18;101696.19;;;16.99;51.58
28344;BME280;15597;50.914;6.638;2023-05-02T09:46:49;101696.09;;;17.02;51.40
28344;BME280;15597;50.914;6.638;2023-05-02T09:49:15;101696.91;;;17.04;51.33
28344;BME280;15597;50.914;6.638;2023-05-02T09:51:47;101703.03;;;17.05;51.36
28344;BME280;15597;50.914;6.638;2023-05-02T09:54:17;101713.59;;;17.06;51.37
28344;BME280;15597;50.914;6.638;2023-05-02T09:56:58;101710.13;;;17.04;51.37
28344;BME280;15597;50.914;6.638;2023-05-02T09:59:24;101710.97;;;17.05;51.29
28344;BME280;15597;50.914;6.638;2023-05-02T10:01:58;101711.84;;;17.05;51.43
28344;BME280;15597;50.914;6.638;2023-05-02T10:04:24;101715.22;;;17.11;51.31
28344;BME280;15597;50.914;6.638;2023-05-02T10:06:51;101717.69;;;17.17;51.29
28344;BME280;15597;50.914;6.638;2023-05-02T10:09:19;101719.44;;;17.16;51.23
28344;BME280;15597;50.914;6.638;2023-05-02T10:11:45;101721.03;;;17.22;51.08
28344;BME280;15597;50.914;6.638;2023-05-02T10:14:11;101719.16;;;17.26;50.83
28344;BME280;15597;50.914;6.638;2023-05-02T10:16:49;101722.78;;;17.23;50.90
28344;BME280;15597;50.914;6.638;2023-05-02T10:19:23;101727.91;;;17.28;50.81
28344;BME280;15597;50.914;6.638;2023-05-02T10:21:51;101725.13;;;17.32;50.93
28344;BME280;15597;50.914;6.638;2023-05-02T10:24:18;101732.16;;;17.33;50.61
28344;BME280;15597;50.914;6.638;2023-05-02T10:26:46;101730.41;;;17.32;50.75
28344;BME280;15597;50.914;6.638;2023-05-02T10:29:11;101727.81;;;17.31;50.48
28344;BME280;15597;50.914;6.638;2023-05-02T10:31:37;101735.81;;;17.29;50.41
28344;BME280;15597;50.914;6.638;2023-05-02T10:34:05;101734.91;;;17.29;50.37
28344;BME280;15597;50.914;6.638;2023-05-02T10:36:34;101734.91;;;17.29;50.24
28344;BME280;15597;50.914;6.638;2023-05-02T10:39:01;101740.31;;;17.26;50.50
28344;BME280;15597;50.914;6.638;2023-05-02T10:41:29;101744.84;;;17.22;50.21
28344;BME280;15597;50.914;6.638;2023-05-02T10:43:56;101747.53;;;17.20;50.32
28344;BME280;15597;50.914;6.638;2023-05-02T10:46:32;101744.13;;;17.17;50.42
28344;BME280;15597;50.914;6.638;2023-05-02T10:48:59;101752.81;;;17.20;50.25
28344;BME280;15597;50.914;6.638;2023-05-02T10:51:29;101743.13;;;17.21;50.20
28344;BME280;15597;50.914;6.638;2023-05-02T10:54:21;101743.31;;;17.15;49.89
28344;BME280;15597;50.914;6.638;2023-05-02T10:59:41;101741.78;;;17.06;50.35
28344;BME280;15597;50.914;6.638;2023-05-02T11:05:02;101748.78;;;17.08;50.58
28344;BME280;15597;50.914;6.638;2023-05-02T11:07:31;101748.59;;;17.15;50.40
28344;BME280;15597;50.914;6.638;2023-05-02T11:10:43;101746.31;;;17.02;50.85
28344;BME280;15597;50.914;6.638;2023-05-02T11:15:14;101745.03;;;17.16;50.56
28344;BME280;15597;50.914;6.638;2023-05-02T11:20:24;101746.56;;;17.23;50.28
28344;BME280;15597;50.914;6.638;2023-05-02T11:22:50;101740.31;;;17.26;49.90
28344;BME280;15597;50.914;6.638;2023-05-02T11:25:37;101745.69;;;17.22;50.08
28344;BME280;15597;50.914;6.638;2023-05-02T11:28:05;101752.59;;;17.28;49.85
28344;BME280;15597;50.914;6.638;2023-05-02T11:30:39;101747.28;;;17.28;50.10
28344;BME280;15597;50.914;6.638;2023-05-02T11:35:30;101742.63;;;17.36;50.04
28344;BME280;15597;50.914;6.638;2023-05-02T11:38:03;101746.09;;;17.38;49.92
28344;BME280;15597;50.914;6.638;2023-05-02T11:40:30;101750.41;;;17.41;49.56
28344;BME280;15597;50.914;6.638;2023-05-02T11:42:58;101742.47;;;17.41;49.92
28344;BME280;15597;50.914;6.638;2023-05-02T11:45:36;101746.09;;;17.38;49.73
28344;BME280;15597;50.914;6.638;2023-05-02T11:48:04;101749.34;;;17.47;49.52
28344;BME280;15597;50.914;6.638;2023-05-02T11:50:41;101741.31;;;17.50;49.53
28344;BME280;15597;50.914;6.638;2023-05-02T11:53:15;101744.84;;;17.50;49.97
28344;BME280;15597;50.914;6.638;2023-05-02T11:55:46;101748.09;;;17.59;49.38
28344;BME280;15597;50.914;6.638;2023-05-02T11:58:17;101754.94;;;17.66;49.57
28344;BME280;15597;50.914;6.638;2023-05-02T12:00:44;101756.41;;;17.75;49.25
28344;BME280;15597;50.914;6.638;2023-05-02T12:05:46;101758.13;;;17.76;49.01
28344;BME280;15597;50.914;6.638;2023-05-02T12:08:19;101763.22;;;17.82;49.22
28344;BME280;15597;50.914;6.638;2023-05-02T12:10:45;101754.81;;;17.96;49.08
28344;BME280;15597;50.914;6.638;2023-05-02T12:13:11;101761.69;;;18.02;49.57
28344;BME280;15597;50.914;6.638;2023-05-02T12:15:37;101756.34;;;18.05;49.68
28344;BME280;15597;50.914;6.638;2023-05-02T12:18:03;101762.44;;;18.07;49.01
28344;BME280;15597;50.914;6.638;2023-05-02T12:20:28;101765.69;;;18.15;48.91
28344;BME280;15597;50.914;6.638;2023-05-02T12:22:54;101759.19;;;18.24;49.37
28344;BME280;15597;50.914;6.638;2023-05-02T12:25:20;101767.84;;;18.29;49.31
28344;BME280;15597;50.914;6.638;2023-05-02T12:28:01;101767.03;;;18.27;49.11
28344;BME280;15597;50.914;6.638;2023-05-02T12:30:28;101765.84;;;18.36;47.97
28344;BME280;15597;50.914;6.638;2023-05-02T12:32:58;101767.59;;;18.37;48.01
28344;BME280;15597;50.914;6.638;2023-05-02T12:35:26;101769.19;;;18.41;47.51
28344;BME280;15597;50.914;6.638;2023-05-02T12:37:53;101776.22;;;18.42;47.80
28344;BME280;15597;50.914;6.638;2023-05-02T12:40:19;101766.56;;;18.41;47.95
28344;BME280;15597;50.914;6.638;2023-05-02T12:42:58;101779.03;;;18.37;48.66
28344;BME280;15597;50.914;6.638;2023-05-02T12:45:24;101772.44;;;18.49;47.95
28344;BME280;15597;50.914;6.638;2023-05-02T12:47:53;101773.00;;;18.59;48.01
28344;BME280;15597;50.914;6.638;2023-05-02T12:50:19;101772.91;;;18.61;47.87
28344;BME280;15597;50.914;6.638;2023-05-02T12:52:49;101790.50;;;18.63;47.59
28344;BME280;15597;50.914;6.638;2023-05-02T12:55:22;101786.59;;;18.74;45.76
28344;BME280;15597;50.914;6.638;2023-05-02T12:58:05;101788.13;;;18.79;46.05
28344;BME280;15597;50.914;6.638;2023-05-02T13:00:33;101793.09;;;18.89;45.07
28344;BME280;15597;50.914;6.638;2023-05-02T13:02:59;101791.84;;;18.99;46.08
28344;BME280;15597;50.914;6.638;2023-05-02T13:05:25;101790.81;;;19.03;46.18
28344;BME280;15597;50.914;6.638;2023-05-02T13:07:51;101795.03;;;19.09;45.83
28344;BME280;15597;50.914;6.638;2023-05-02T13:10:17;101790.66;;;19.08;45.44
28344;BME280;15597;50.914;6.638;2023-05-02T13:12:45;101793.19;;;19.11;45.99
28344;BME280;15597;50.914;6.638;2023-05-02T13:15:12;101802.75;;;19.15;45.69
28344;BME280;15597;50.914;6.638;2023-05-02T13:17:38;101800.06;;;19.17;45.01
28344;BME280;15597;50.914;6.638;2023-05-02T13:20:04;101796.59;;;19.15;44.65
28344;BME280;15597;50.914;6.638;2023-05-02T13:22:30;101799.16;;;19.18;45.20
28344;BME280;15597;50.914;6.638;2023-05-02T13:24:55;101799.06;;;19.19;44.93
28344;BME280;15597;50.914;6.638;2023-05-02T13:27:22;101791.78;;;19.24;44.20